sensor_id;sensor_type;location;lat;lon;timestamp;temperature;humidity
68051;DHT22;54839;51.364;7.246;2024-01-16T00:02:19;0.20;99.90
68051;DHT22;54839;51.364;7.246;2024-01-16T00:04:45;0.10;99.90
68051;DHT22;54839;51.364;7.246;2024-01-16T00:07:10;0.10;99.90
68051;DHT22;54839;51.364;7.246;2024-01-16T00:09:36;0.10;99.90
68051;DHT22;54839;51.364;7.246;2024-01-16T00:12:03;0.10;99.90
68051;DHT22;54839;51.364;7.246;2024-01-16T00:14:29;0.20;99.90
68051;DHT22;54839;51.364;7.246;2024-01-16T00:16:55;0.10;99.90
68051;DHT22;54839;51.364;7.246;2024-01-16T00:19:20;0.20;99.90
68051;DHT22;54839;51.364;7.246;2024-01-16T00:21:46;0.10;99.90
68051;DHT22;54839;51.364;7.246;2024-01-16T00:24:13;0.10;99.90
68051;DHT22;54839;51.364;7.246;2024-01-16T00:26:38;0.30;99.90
68051;DHT22;54839;51.364;7.246;2024-01-16T00:29:04;0.20;99.90
68051;DHT22;54839;51.364;7.246;2024-01-16T00:31:29;0.20;99.90
68051;DHT22;54839;51.364;7.246;2024-01-16T00:33:55;0.20;99.90
68051;DHT22;54839;51.364;7.246;2024-01-16T00:36:21;0.20;99.90
68051;DHT22;54839;51.364;7.246;2024-01-16T00:38:46;0.20;99.90
68051;DHT22;54839;51.364;7.246;2024-01-16T00:41:12;0.20;99.90
68051;DHT22;54839;51.364;7.246;2024-01-16T00:43:41;0.10;99.90
68051;DHT22;54839;51.364;7.246;2024-01-16T00:46:06;0.10;99.90
68051;DHT22;54839;51.364;7.246;2024-01-16T00:48:32;0.10;99.90
68051;DHT22;54839;51.364;7.246;2024-01-16T00:50:58;0.10;99.90
68051;DHT22;54839;51.364;7.246;2024-01-16T00:53:23;0.10;99.90
68051;DHT22;54839;51.364;7.246;2024-01-16T00:55:49;0.00;99.90
68051;DHT22;54839;51.364;7.246;2024-01-16T00:58:15;0.10;99.90
68051;DHT22;54839;51.364;7.246;2024-01-16T01:00:41;0.10;99.90
68051;DHT22;54839;51.364;7.246;2024-01-16T01:03:06;0.10;99.90
68051;DHT22;54839;51.364;7.246;2024-01-16T01:05:32;0.20;99.90
68051;DHT22;54839;51.364;7.246;2024-01-16T01:07:58;0.10;99.90
68051;DHT22;54839;51.364;7.246;2024-01-16T01:10:24;0.10;99.90
68051;DHT22;54839;51.364;7.246;2024-01-16T01:12:50;0.10;99.90
68051;DHT22;54839;51.364;7.246;2024-01-16T01:15:18;0.20;99.90
68051;DHT22;54839;51.364;7.246;2024-01-16T01:17:43;0.20;99.90
68051;DHT22;54839;51.364;7.246;2024-01-16T01:20:09;0.20;99.90
68051;DHT22;54839;51.364;7.246;2024-01-16T01:22:37;0.20;99.90
68051;DHT22;54839;51.364;7.246;2024-01-16T01:25:03;0.20;99.90
68051;DHT22;54839;51.364;7.246;2024-01-16T01:27:29;0.10;99.90
68051;DHT22;54839;51.364;7.246;2024-01-16T01:29:55;0.10;99.90
68051;DHT22;54839;51.364;7.246;2024-01-16T01:32:21;0.10;99.90
68051;DHT22;54839;51.364;7.246;2024-01-16T01:34:46;0.20;99.90
68051;DHT22;54839;51.364;7.246;2024-01-16T01:37:12;0.10;99.90
68051;DHT22;54839;51.364;7.246;2024-01-16T01:39:38;0.10;99.90
68051;DHT22;54839;51.364;7.246;2024-01-16T01:42:03;0.10;99.90
68051;DHT22;54839;51.364;7.246;2024-01-16T01:44:29;0.20;99.90
68051;DHT22;54839;51.364;7.246;2024-01-16T01:46:56;0.20;99.90
68051;DHT22;54839;51.364;7.246;2024-01-16T01:49:22;0.10;99.90
68051;DHT22;54839;51.364;7.246;2024-01-16T01:51:49;0.10;99.90
68051;DHT22;54839;51.364;7.246;2024-01-16T01:54:15;0.10;99.90
68051;DHT22;54839;51.364;7.246;2024-01-16T01:56:44;0.20;99.90
68051;DHT22;54839;51.364;7.246;2024-01-16T01:59:11;0.10;99.90
68051;DHT22;54839;51.364;7.246;2024-01-16T02:01:37;0.20;99.90
68051;DHT22;54839;51.364;7.246;2024-01-16T02:04:04;0.20;99.90
68051;DHT22;54839;51.364;7.246;2024-01-16T02:06:30;0.20;99.90
68051;DHT22;54839;51.364;7.246;2024-01-16T02:08:57;0.10;99.90
68051;DHT22;54839;51.364;7.246;2024-01-16T02:11:22;0.00;99.90
68051;DHT22;54839;51.364;7.246;2024-01-16T02:13:48;0.20;99.90
68051;DHT22;54839;51.364;7.246;2024-01-16T02:16:38;0.10;99.90
68051;DHT22;54839;51.364;7.246;2024-01-16T02:19:04;0.10;99.90
68051;DHT22;54839;51.364;7.246;2024-01-16T02:21:35;0.10;99.90
68051;DHT22;54839;51.364;7.246;2024-01-16T02:24:02;0.10;99.90
68051;DHT22;54839;51.364;7.246;2024-01-16T02:26:28;0.10;99.90
68051;DHT22;54839;51.364;7.246;2024-01-16T02:28:55;0.00;99.90
68051;DHT22;54839;51.364;7.246;2024-01-16T02:31:21;0.00;99.90
68051;DHT22;54839;51.364;7.246;2024-01-16T02:33:47;0.10;99.90
68051;DHT22;54839;51.364;7.246;2024-01-16T02:36:13;0.10;99.90
68051;DHT22;54839;51.364;7.246;2024-01-16T02:38:39;0.10;99.90
68051;DHT22;54839;51.364;7.246;2024-01-16T02:41:07;0.10;99.90
68051;DHT22;54839;51.364;7.246;2024-01-16T02:43:32;0.10;99.90
68051;DHT22;54839;51.364;7.246;2024-01-16T02:45:58;0.10;99.90
68051;DHT22;54839;51.364;7.246;2024-01-16T02:48:24;0.10;99.90
68051;DHT22;54839;51.364;7.246;2024-01-16T02:50:49;0.20;99.90
68051;DHT22;54839;51.364;7.246;2024-01-16T02:53:15;0.10;99.90
68051;DHT22;54839;51.364;7.246;2024-01-16T02:55:40;0.10;99.90
68051;DHT22;54839;51.364;7.246;2024-01-16T02:58:06;0.10;99.90
68051;DHT22;54839;51.364;7.246;2024-01-16T03:00:31;0.10;99.90
68051;DHT22;54839;51.364;7.246;2024-01-16T03:02:57;0.30;99.90
68051;DHT22;54839;51.364;7.246;2024-01-16T03:05:23;0.20;99.90
68051;DHT22;54839;51.364;7.246;2024-01-16T03:07:48;0.20;99.90
68051;DHT22;54839;51.364;7.246;2024-01-16T03:10:14;0.20;99.90
68051;DHT22;54839;51.364;7.246;2024-01-16T03:12:39;0.20;99.90
68051;DHT22;54839;51.364;7.246;2024-01-16T03:15:05;0.20;99.90
68051;DHT22;54839;51.364;7.246;2024-01-16T03:17:31;0.20;99.90
68051;DHT22;54839;51.364;7.246;2024-01-16T03:19:56;0.20;99.90
68051;DHT22;54839;51.364;7.246;2024-01-16T03:22:22;0.10;99.90
68051;DHT22;54839;51.364;7.246;2024-01-16T03:24:49;0.10;99.90
68051;DHT22;54839;51.364;7.246;2024-01-16T03:27:15;0.20;99.90
68051;DHT22;54839;51.364;7.246;2024-01-16T03:29:41;0.30;99.90
68051;DHT22;54839;51.364;7.246;2024-01-16T03:32:06;0.20;99.90
68051;DHT22;54839;51.364;7.246;2024-01-16T03:34:31;0.30;99.90
68051;DHT22;54839;51.364;7.246;2024-01-16T03:36:57;0.30;99.90
68051;DHT22;54839;51.364;7.246;2024-01-16T03:39:23;0.10;99.90
68051;DHT22;54839;51.364;7.246;2024-01-16T03:41:48;0.30;99.90
68051;DHT22;54839;51.364;7.246;2024-01-16T03:44:14;0.30;99.90
68051;DHT22;54839;51.364;7.246;2024-01-16T03:46:39;0.20;99.90
68051;DHT22;54839;51.364;7.246;2024-01-16T03:49:05;0.20;99.90
68051;DHT22;54839;51.364;7.246;2024-01-16T03:51:30;0.30;99.90
68051;DHT22;54839;51.364;7.246;2024-01-16T03:53:56;0.30;99.90
68051;DHT22;54839;51.364;7.246;2024-01-16T03:56:22;0.40;99.90
68051;DHT22;54839;51.364;7.246;2024-01-16T03:58:48;0.40;99.90
68051;DHT22;54839;51.364;7.246;2024-01-16T04:01:14;0.30;99.90
68051;DHT22;54839;51.364;7.246;2024-01-16T04:03:40;0.30;99.90
68051;DHT22;54839;51.364;7.246;2024-01-16T04:06:18;0.30;99.90
68051;DHT22;54839;51.364;7.246;2024-01-16T04:08:44;0.30;99.90
68051;DHT22;54839;51.364;7.246;2024-01-16T04:11:13;0.30;99.90
68051;DHT22;54839;51.364;7.246;2024-01-16T04:13:39;0.30;99.90
68051;DHT22;54839;51.364;7.246;2024-01-16T04:16:05;0.30;99.90
68051;DHT22;54839;51.364;7.246;2024-01-16T04:18:38;0.30;99.90
68051;DHT22;54839;51.364;7.246;2024-01-16T04:21:04;0.30;99.90
68051;DHT22;54839;51.364;7.246;2024-01-16T04:23:29;0.30;99.90
68051;DHT22;54839;51.364;7.246;2024-01-16T04:25:55;0.30;99.90
68051;DHT22;54839;51.364;7.246;2024-01-16T04:28:21;0.30;99.90
68051;DHT22;54839;51.364;7.246;2024-01-16T04:30:46;0.30;99.90
68051;DHT22;54839;51.364;7.246;2024-01-16T04:33:12;0.30;99.90
68051;DHT22;54839;51.364;7.246;2024-01-16T04:35:37;0.30;99.90
68051;DHT22;54839;51.364;7.246;2024-01-16T04:38:03;0.30;99.90
68051;DHT22;54839;51.364;7.246;2024-01-16T04:40:28;0.30;99.90
68051;DHT22;54839;51.364;7.246;2024-01-16T04:42:54;0.20;99.90
68051;DHT22;54839;51.364;7.246;2024-01-16T04:45:19;0.30;99.90
68051;DHT22;54839;51.364;7.246;2024-01-16T04:47:45;0.30;99.90
68051;DHT22;54839;51.364;7.246;2024-01-16T04:50:10;0.20;99.90
68051;DHT22;54839;51.364;7.246;2024-01-16T04:52:36;0.20;99.90
68051;DHT22;54839;51.364;7.246;2024-01-16T04:55:01;0.30;99.90
68051;DHT22;54839;51.364;7.246;2024-01-16T04:57:27;0.30;99.90
68051;DHT22;54839;51.364;7.246;2024-01-16T04:59:53;0.20;99.90
68051;DHT22;54839;51.364;7.246;2024-01-16T05:02:18;0.30;99.90
68051;DHT22;54839;51.364;7.246;2024-01-16T05:04:44;0.30;99.90
68051;DHT22;54839;51.364;7.246;2024-01-16T05:07:09;0.20;99.90
68051;DHT22;54839;51.364;7.246;2024-01-16T05:09:35;0.30;99.90
68051;DHT22;54839;51.364;7.246;2024-01-16T05:12:01;0.30;99.90
68051;DHT22;54839;51.364;7.246;2024-01-16T05:14:26;0.30;99.90
68051;DHT22;54839;51.364;7.246;2024-01-16T05:16:52;0.20;99.90
68051;DHT22;54839;51.364;7.246;2024-01-16T05:19:18;0.30;99.90
68051;DHT22;54839;51.364;7.246;2024-01-16T05:21:44;0.20;99.90
68051;DHT22;54839;51.364;7.246;2024-01-16T05:24:09;0.20;99.90
68051;DHT22;54839;51.364;7.246;2024-01-16T05:26:35;0.30;99.90
68051;DHT22;54839;51.364;7.246;2024-01-16T05:29:00;0.30;99.90
68051;DHT22;54839;51.364;7.246;2024-01-16T05:31:26;0.30;99.90
68051;DHT22;54839;51.364;7.246;2024-01-16T05:33:51;0.30;99.90
68051;DHT22;54839;51.364;7.246;2024-01-16T05:36:17;0.20;99.90
68051;DHT22;54839;51.364;7.246;2024-01-16T05:38:42;0.20;99.90
68051;DHT22;54839;51.364;7.246;2024-01-16T05:41:09;0.30;99.90
68051;DHT22;54839;51.364;7.246;2024-01-16T05:43:34;0.30;99.90
68051;DHT22;54839;51.364;7.246;2024-01-16T05:46:00;0.30;99.90
68051;DHT22;54839;51.364;7.246;2024-01-16T05:48:26;0.30;99.90
68051;DHT22;54839;51.364;7.246;2024-01-16T05:50:51;0.30;99.90
68051;DHT22;54839;51.364;7.246;2024-01-16T05:53:17;0.30;99.90
68051;DHT22;54839;51.364;7.246;2024-01-16T05:55:43;0.30;99.90
68051;DHT22;54839;51.364;7.246;2024-01-16T05:58:08;0.20;99.90
68051;DHT22;54839;51.364;7.246;2024-01-16T06:00:34;0.20;99.90
68051;DHT22;54839;51.364;7.246;2024-01-16T06:03:00;0.20;99.90
68051;DHT22;54839;51.364;7.246;2024-01-16T06:05:25;0.20;99.90
68051;DHT22;54839;51.364;7.246;2024-01-16T06:07:51;0.20;99.90
68051;DHT22;54839;51.364;7.246;2024-01-16T06:10:16;0.20;99.90
68051;DHT22;54839;51.364;7.246;2024-01-16T06:12:42;0.30;99.90
68051;DHT22;54839;51.364;7.246;2024-01-16T06:15:08;0.10;99.90
68051;DHT22;54839;51.364;7.246;2024-01-16T06:17:34;0.00;99.90
68051;DHT22;54839;51.364;7.246;2024-01-16T06:20:00;0.00;99.90
68051;DHT22;54839;51.364;7.246;2024-01-16T06:22:25;-0.10;99.90
68051;DHT22;54839;51.364;7.246;2024-01-16T06:24:51;0.00;99.90
68051;DHT22;54839;51.364;7.246;2024-01-16T06:27:16;0.00;99.90
68051;DHT22;54839;51.364;7.246;2024-01-16T06:29:50;0.00;99.90
68051;DHT22;54839;51.364;7.246;2024-01-16T06:32:16;0.00;99.90
68051;DHT22;54839;51.364;7.246;2024-01-16T06:34:42;0.00;99.90
68051;DHT22;54839;51.364;7.246;2024-01-16T06:37:07;0.00;99.90
68051;DHT22;54839;51.364;7.246;2024-01-16T06:39:33;-0.10;99.90
68051;DHT22;54839;51.364;7.246;2024-01-16T06:41:59;0.00;99.90
68051;DHT22;54839;51.364;7.246;2024-01-16T06:44:25;0.10;99.90
68051;DHT22;54839;51.364;7.246;2024-01-16T06:46:50;0.00;99.90
68051;DHT22;54839;51.364;7.246;2024-01-16T06:49:16;0.10;99.90
68051;DHT22;54839;51.364;7.246;2024-01-16T06:51:41;0.10;99.90
68051;DHT22;54839;51.364;7.246;2024-01-16T06:54:07;0.10;99.90
68051;DHT22;54839;51.364;7.246;2024-01-16T06:56:33;0.00;99.90
68051;DHT22;54839;51.364;7.246;2024-01-16T06:58:58;0.00;99.90
68051;DHT22;54839;51.364;7.246;2024-01-16T07:01:24;0.10;99.90
68051;DHT22;54839;51.364;7.246;2024-01-16T07:03:49;0.10;99.90
68051;DHT22;54839;51.364;7.246;2024-01-16T07:06:15;0.10;99.90
68051;DHT22;54839;51.364;7.246;2024-01-16T07:08:40;0.10;99.90
68051;DHT22;54839;51.364;7.246;2024-01-16T07:11:06;0.10;99.90
68051;DHT22;54839;51.364;7.246;2024-01-16T07:13:34;0.10;99.90
68051;DHT22;54839;51.364;7.246;2024-01-16T07:16:00;-0.10;99.90
68051;DHT22;54839;51.364;7.246;2024-01-16T07:18:27;0.00;99.90
68051;DHT22;54839;51.364;7.246;2024-01-16T07:20:53;0.00;99.90
68051;DHT22;54839;51.364;7.246;2024-01-16T07:23:19;-0.10;99.90
68051;DHT22;54839;51.364;7.246;2024-01-16T07:25:44;-0.10;99.90
68051;DHT22;54839;51.364;7.246;2024-01-16T07:28:10;-0.20;99.90
68051;DHT22;54839;51.364;7.246;2024-01-16T07:30:35;-0.20;99.90
68051;DHT22;54839;51.364;7.246;2024-01-16T07:33:03;-0.20;99.90
68051;DHT22;54839;51.364;7.246;2024-01-16T07:35:28;-0.30;99.90
68051;DHT22;54839;51.364;7.246;2024-01-16T07:37:54;-0.20;99.90
68051;DHT22;54839;51.364;7.246;2024-01-16T07:40:19;-0.30;99.90
68051;DHT22;54839;51.364;7.246;2024-01-16T07:42:46;-0.30;99.90
68051;DHT22;54839;51.364;7.246;2024-01-16T07:45:11;-0.40;99.90
68051;DHT22;54839;51.364;7.246;2024-01-16T07:47:37;-0.40;99.90
68051;DHT22;54839;51.364;7.246;2024-01-16T07:50:03;-0.40;99.90
68051;DHT22;54839;51.364;7.246;2024-01-16T07:52:29;-0.30;99.90
68051;DHT22;54839;51.364;7.246;2024-01-16T07:54:54;-0.40;99.90
68051;DHT22;54839;51.364;7.246;2024-01-16T07:57:20;-0.40;99.90
68051;DHT22;54839;51.364;7.246;2024-01-16T07:59:46;-0.40;99.90
68051;DHT22;54839;51.364;7.246;2024-01-16T08:02:11;-0.40;99.90
68051;DHT22;54839;51.364;7.246;2024-01-16T08:04:38;-0.40;99.90
68051;DHT22;54839;51.364;7.246;2024-01-16T08:07:04;-0.50;99.90
68051;DHT22;54839;51.364;7.246;2024-01-16T08:09:29;-0.40;99.90
68051;DHT22;54839;51.364;7.246;2024-01-16T08:11:55;-0.40;99.90
68051;DHT22;54839;51.364;7.246;2024-01-16T08:14:20;-0.40;99.90
68051;DHT22;54839;51.364;7.246;2024-01-16T08:16:46;-0.40;99.90
68051;DHT22;54839;51.364;7.246;2024-01-16T08:19:11;-0.30;99.90
68051;DHT22;54839;51.364;7.246;2024-01-16T08:21:37;-0.30;99.90
68051;DHT22;54839;51.364;7.246;2024-01-16T08:24:03;-0.40;99.90
68051;DHT22;54839;51.364;7.246;2024-01-16T08:26:28;-0.30;99.90
68051;DHT22;54839;51.364;7.246;2024-01-16T08:28:54;-0.30;99.90
68051;DHT22;54839;51.364;7.246;2024-01-16T08:31:20;-0.30;99.90
68051;DHT22;54839;51.364;7.246;2024-01-16T08:33:45;-0.20;99.90
68051;DHT22;54839;51.364;7.246;2024-01-16T08:36:11;-0.30;99.90
68051;DHT22;54839;51.364;7.246;2024-01-16T08:38:37;-0.20;99.90
68051;DHT22;54839;51.364;7.246;2024-01-16T08:41:02;-0.10;99.90
68051;DHT22;54839;51.364;7.246;2024-01-16T08:43:34;-0.10;99.90
68051;DHT22;54839;51.364;7.246;2024-01-16T08:46:00;0.00;99.90
68051;DHT22;54839;51.364;7.246;2024-01-16T08:48:25;-0.10;99.90
68051;DHT22;54839;51.364;7.246;2024-01-16T08:50:51;0.00;99.90
68051;DHT22;54839;51.364;7.246;2024-01-16T08:53:17;0.00;99.90
68051;DHT22;54839;51.364;7.246;2024-01-16T08:55:42;0.10;99.90
68051;DHT22;54839;51.364;7.246;2024-01-16T08:58:08;-0.10;99.90
68051;DHT22;54839;51.364;7.246;2024-01-16T09:00:34;0.00;99.90
68051;DHT22;54839;51.364;7.246;2024-01-16T09:02:59;0.00;99.90
68051;DHT22;54839;51.364;7.246;2024-01-16T09:05:25;0.00;99.90
68051;DHT22;54839;51.364;7.246;2024-01-16T09:07:51;0.00;99.90
68051;DHT22;54839;51.364;7.246;2024-01-16T09:10:18;0.00;99.90
68051;DHT22;54839;51.364;7.246;2024-01-16T09:12:43;0.10;99.90
68051;DHT22;54839;51.364;7.246;2024-01-16T09:15:10;0.10;99.90
68051;DHT22;54839;51.364;7.246;2024-01-16T09:17:35;0.20;99.90
68051;DHT22;54839;51.364;7.246;2024-01-16T09:20:01;0.20;99.90
68051;DHT22;54839;51.364;7.246;2024-01-16T09:22:26;0.10;99.90
68051;DHT22;54839;51.364;7.246;2024-01-16T09:24:52;0.20;99.90
68051;DHT22;54839;51.364;7.246;2024-01-16T09:27:18;0.20;99.90
68051;DHT22;54839;51.364;7.246;2024-01-16T09:29:45;0.20;99.90
68051;DHT22;54839;51.364;7.246;2024-01-16T09:32:10;0.20;99.90
68051;DHT22;54839;51.364;7.246;2024-01-16T09:34:36;0.10;99.90
68051;DHT22;54839;51.364;7.246;2024-01-16T09:37:01;0.40;99.90
68051;DHT22;54839;51.364;7.246;2024-01-16T09:39:28;0.20;99.90
68051;DHT22;54839;51.364;7.246;2024-01-16T09:41:57;0.20;99.90
68051;DHT22;54839;51.364;7.246;2024-01-16T09:44:25;0.10;99.90
68051;DHT22;54839;51.364;7.246;2024-01-16T09:46:53;0.40;99.90
68051;DHT22;54839;51.364;7.246;2024-01-16T09:49:20;0.40;99.90
68051;DHT22;54839;51.364;7.246;2024-01-16T09:51:46;0.60;99.90
68051;DHT22;54839;51.364;7.246;2024-01-16T09:54:11;0.40;99.90
68051;DHT22;54839;51.364;7.246;2024-01-16T09:56:44;0.50;99.90
68051;DHT22;54839;51.364;7.246;2024-01-16T09:59:14;0.60;99.90
68051;DHT22;54839;51.364;7.246;2024-01-16T10:01:41;0.60;99.90
68051;DHT22;54839;51.364;7.246;2024-01-16T10:04:07;0.40;99.90
68051;DHT22;54839;51.364;7.246;2024-01-16T10:06:33;0.40;99.90
68051;DHT22;54839;51.364;7.246;2024-01-16T10:09:00;0.40;99.90
68051;DHT22;54839;51.364;7.246;2024-01-16T10:11:25;0.40;99.90
68051;DHT22;54839;51.364;7.246;2024-01-16T10:13:51;0.40;99.90
68051;DHT22;54839;51.364;7.246;2024-01-16T10:16:16;0.60;99.90
68051;DHT22;54839;51.364;7.246;2024-01-16T10:18:42;0.60;99.90
68051;DHT22;54839;51.364;7.246;2024-01-16T10:21:21;0.60;99.90
68051;DHT22;54839;51.364;7.246;2024-01-16T10:23:50;0.60;99.90
68051;DHT22;54839;51.364;7.246;2024-01-16T10:26:16;0.70;99.90
68051;DHT22;54839;51.364;7.246;2024-01-16T10:28:43;0.60;99.90
68051;DHT22;54839;51.364;7.246;2024-01-16T10:31:11;0.60;99.90
68051;DHT22;54839;51.364;7.246;2024-01-16T10:33:37;0.60;99.90
68051;DHT22;54839;51.364;7.246;2024-01-16T10:36:12;0.70;99.90
68051;DHT22;54839;51.364;7.246;2024-01-16T10:38:42;0.80;99.90
68051;DHT22;54839;51.364;7.246;2024-01-16T10:41:10;0.90;99.90
68051;DHT22;54839;51.364;7.246;2024-01-16T10:43:36;0.90;99.90
68051;DHT22;54839;51.364;7.246;2024-01-16T10:46:10;0.60;99.90
68051;DHT22;54839;51.364;7.246;2024-01-16T10:48:41;0.60;99.90
68051;DHT22;54839;51.364;7.246;2024-01-16T10:51:08;0.60;99.90
68051;DHT22;54839;51.364;7.246;2024-01-16T10:53:35;0.70;99.90
68051;DHT22;54839;51.364;7.246;2024-01-16T10:56:01;0.60;99.90
68051;DHT22;54839;51.364;7.246;2024-01-16T10:58:29;0.50;99.90
68051;DHT22;54839;51.364;7.246;2024-01-16T11:01:01;0.40;99.90
68051;DHT22;54839;51.364;7.246;2024-01-16T11:05:59;0.60;99.90
68051;DHT22;54839;51.364;7.246;2024-01-16T11:08:27;0.50;99.90
68051;DHT22;54839;51.364;7.246;2024-01-16T11:10:57;0.70;99.90
68051;DHT22;54839;51.364;7.246;2024-01-16T11:13:23;0.80;99.90
68051;DHT22;54839;51.364;7.246;2024-01-16T11:15:50;0.60;99.90
68051;DHT22;54839;51.364;7.246;2024-01-16T11:18:16;0.60;99.90
68051;DHT22;54839;51.364;7.246;2024-01-16T11:20:43;0.60;99.90
68051;DHT22;54839;51.364;7.246;2024-01-16T11:23:10;0.70;99.90
68051;DHT22;54839;51.364;7.246;2024-01-16T11:25:37;0.70;99.90
68051;DHT22;54839;51.364;7.246;2024-01-16T11:28:10;0.70;99.90
68051;DHT22;54839;51.364;7.246;2024-01-16T11:30:37;0.80;99.90
68051;DHT22;54839;51.364;7.246;2024-01-16T11:33:02;0.80;99.90
68051;DHT22;54839;51.364;7.246;2024-01-16T11:35:34;0.80;99.90
68051;DHT22;54839;51.364;7.246;2024-01-16T11:38:16;1.00;99.90
68051;DHT22;54839;51.364;7.246;2024-01-16T11:40:42;1.00;99.90
68051;DHT22;54839;51.364;7.246;2024-01-16T11:43:35;1.30;99.90
68051;DHT22;54839;51.364;7.246;2024-01-16T11:46:06;1.30;99.90
68051;DHT22;54839;51.364;7.246;2024-01-16T11:48:35;1.50;99.90
68051;DHT22;54839;51.364;7.246;2024-01-16T11:51:24;1.50;99.90
68051;DHT22;54839;51.364;7.246;2024-01-16T11:53:50;1.50;99.90
68051;DHT22;54839;51.364;7.246;2024-01-16T12:01:31;1.40;99.90
68051;DHT22;54839;51.364;7.246;2024-01-16T12:04:06;1.70;99.90
68051;DHT22;54839;51.364;7.246;2024-01-16T12:06:34;1.60;99.90
68051;DHT22;54839;51.364;7.246;2024-01-16T12:09:16;1.40;99.90
68051;DHT22;54839;51.364;7.246;2024-01-16T12:12:04;1.40;99.90
68051;DHT22;54839;51.364;7.246;2024-01-16T12:14:30;1.40;99.90
68051;DHT22;54839;51.364;7.246;2024-01-16T12:17:14;1.50;99.90
68051;DHT22;54839;51.364;7.246;2024-01-16T12:19:41;1.40;99.90
68051;DHT22;54839;51.364;7.246;2024-01-16T12:22:13;1.30;99.90
68051;DHT22;54839;51.364;7.246;2024-01-16T12:24:39;1.10;99.90
68051;DHT22;54839;51.364;7.246;2024-01-16T12:27:05;1.00;99.90
68051;DHT22;54839;51.364;7.246;2024-01-16T12:29:31;1.00;99.90
68051;DHT22;54839;51.364;7.246;2024-01-16T12:32:10;0.90;99.90
68051;DHT22;54839;51.364;7.246;2024-01-16T12:34:44;0.80;99.90
68051;DHT22;54839;51.364;7.246;2024-01-16T12:37:11;0.70;99.90
68051;DHT22;54839;51.364;7.246;2024-01-16T12:39:38;0.90;99.90
68051;DHT22;54839;51.364;7.246;2024-01-16T12:42:04;0.80;99.90
68051;DHT22;54839;51.364;7.246;2024-01-16T12:44:29;0.60;99.90
68051;DHT22;54839;51.364;7.246;2024-01-16T12:46:56;0.70;99.90
68051;DHT22;54839;51.364;7.246;2024-01-16T12:49:22;0.70;99.90
68051;DHT22;54839;51.364;7.246;2024-01-16T12:51:49;0.70;99.90
68051;DHT22;54839;51.364;7.246;2024-01-16T12:54:16;0.60;99.90
68051;DHT22;54839;51.364;7.246;2024-01-16T12:56:44;0.50;99.90
68051;DHT22;54839;51.364;7.246;2024-01-16T12:59:14;0.50;99.90
68051;DHT22;54839;51.364;7.246;2024-01-16T13:01:40;0.60;99.90
68051;DHT22;54839;51.364;7.246;2024-01-16T13:04:10;0.80;99.90
68051;DHT22;54839;51.364;7.246;2024-01-16T13:06:36;0.70;99.90
68051;DHT22;54839;51.364;7.246;2024-01-16T13:09:10;0.70;99.90
68051;DHT22;54839;51.364;7.246;2024-01-16T13:11:52;0.70;99.90
68051;DHT22;54839;51.364;7.246;2024-01-16T13:14:20;0.80;99.90
68051;DHT22;54839;51.364;7.246;2024-01-16T13:16:46;0.80;99.90
68051;DHT22;54839;51.364;7.246;2024-01-16T13:19:16;0.70;99.90
68051;DHT22;54839;51.364;7.246;2024-01-16T13:21:41;0.70;99.90
68051;DHT22;54839;51.364;7.246;2024-01-16T13:24:07;0.70;99.90
68051;DHT22;54839;51.364;7.246;2024-01-16T13:26:33;0.80;99.90
68051;DHT22;54839;51.364;7.246;2024-01-16T13:29:00;0.80;99.90
68051;DHT22;54839;51.364;7.246;2024-01-16T13:31:25;1.00;99.90
68051;DHT22;54839;51.364;7.246;2024-01-16T13:33:51;1.10;99.90
68051;DHT22;54839;51.364;7.246;2024-01-16T13:36:16;1.40;99.90
68051;DHT22;54839;51.364;7.246;2024-01-16T13:38:42;1.30;99.90
68051;DHT22;54839;51.364;7.246;2024-01-16T13:41:08;1.50;99.90
68051;DHT22;54839;51.364;7.246;2024-01-16T13:43:33;1.70;99.90
68051;DHT22;54839;51.364;7.246;2024-01-16T13:45:59;2.00;99.90
68051;DHT22;54839;51.364;7.246;2024-01-16T13:48:24;2.00;99.90
68051;DHT22;54839;51.364;7.246;2024-01-16T13:50:51;1.90;99.90
68051;DHT22;54839;51.364;7.246;2024-01-16T13:53:17;1.90;99.90
68051;DHT22;54839;51.364;7.246;2024-01-16T13:55:43;1.70;99.90
68051;DHT22;54839;51.364;7.246;2024-01-16T13:58:09;1.70;99.90
68051;DHT22;54839;51.364;7.246;2024-01-16T14:00:34;1.40;99.90
68051;DHT22;54839;51.364;7.246;2024-01-16T14:03:01;1.40;99.90
68051;DHT22;54839;51.364;7.246;2024-01-16T14:05:28;1.10;99.90
68051;DHT22;54839;51.364;7.246;2024-01-16T14:07:54;1.20;99.90
68051;DHT22;54839;51.364;7.246;2024-01-16T14:10:21;1.40;99.90
68051;DHT22;54839;51.364;7.246;2024-01-16T14:12:49;1.20;99.90
68051;DHT22;54839;51.364;7.246;2024-01-16T14:15:16;1.10;99.90
68051;DHT22;54839;51.364;7.246;2024-01-16T14:17:55;1.10;99.90
68051;DHT22;54839;51.364;7.246;2024-01-16T14:20:23;1.00;99.90
68051;DHT22;54839;51.364;7.246;2024-01-16T14:22:56;1.20;99.90
68051;DHT22;54839;51.364;7.246;2024-01-16T14:25:21;1.10;99.90
68051;DHT22;54839;51.364;7.246;2024-01-16T14:27:59;1.00;99.90
68051;DHT22;54839;51.364;7.246;2024-01-16T14:30:26;1.00;99.90
68051;DHT22;54839;51.364;7.246;2024-01-16T14:32:52;1.40;99.90
68051;DHT22;54839;51.364;7.246;2024-01-16T14:35:22;1.70;99.90
68051;DHT22;54839;51.364;7.246;2024-01-16T14:37:47;2.10;99.90
68051;DHT22;54839;51.364;7.246;2024-01-16T14:40:13;2.00;99.90
68051;DHT22;54839;51.364;7.246;2024-01-16T14:42:44;1.70;99.90
68051;DHT22;54839;51.364;7.246;2024-01-16T14:45:10;1.30;99.90
68051;DHT22;54839;51.364;7.246;2024-01-16T14:47:37;1.00;99.90
68051;DHT22;54839;51.364;7.246;2024-01-16T14:50:03;0.80;99.90
68051;DHT22;54839;51.364;7.246;2024-01-16T14:52:30;0.60;99.90
68051;DHT22;54839;51.364;7.246;2024-01-16T14:55:01;0.50;99.90
68051;DHT22;54839;51.364;7.246;2024-01-16T14:57:27;0.40;99.90
68051;DHT22;54839;51.364;7.246;2024-01-16T14:59:53;0.40;99.90
68051;DHT22;54839;51.364;7.246;2024-01-16T15:02:18;0.30;99.90
68051;DHT22;54839;51.364;7.246;2024-01-16T15:04:46;0.30;99.90
68051;DHT22;54839;51.364;7.246;2024-01-16T15:07:14;0.30;99.90
68051;DHT22;54839;51.364;7.246;2024-01-16T15:09:40;0.20;99.90
68051;DHT22;54839;51.364;7.246;2024-01-16T15:12:06;0.10;99.90
68051;DHT22;54839;51.364;7.246;2024-01-16T15:14:35;0.10;99.90
68051;DHT22;54839;51.364;7.246;2024-01-16T15:17:01;0.00;99.90
68051;DHT22;54839;51.364;7.246;2024-01-16T15:19:28;0.10;99.90
68051;DHT22;54839;51.364;7.246;2024-01-16T15:21:54;0.10;99.90
68051;DHT22;54839;51.364;7.246;2024-01-16T15:24:19;0.00;99.90
68051;DHT22;54839;51.364;7.246;2024-01-16T15:26:55;-0.10;99.90
68051;DHT22;54839;51.364;7.246;2024-01-16T15:29:22;-0.10;99.90
68051;DHT22;54839;51.364;7.246;2024-01-16T15:31:48;-0.10;99.90
68051;DHT22;54839;51.364;7.246;2024-01-16T15:34:13;-0.30;99.90
68051;DHT22;54839;51.364;7.246;2024-01-16T15:36:39;-0.30;99.90
68051;DHT22;54839;51.364;7.246;2024-01-16T15:39:05;-0.40;99.90
68051;DHT22;54839;51.364;7.246;2024-01-16T15:41:32;-0.40;99.90
68051;DHT22;54839;51.364;7.246;2024-01-16T15:43:58;-0.60;99.90
68051;DHT22;54839;51.364;7.246;2024-01-16T15:46:23;-0.60;99.90
68051;DHT22;54839;51.364;7.246;2024-01-16T15:48:49;-0.70;99.90
68051;DHT22;54839;51.364;7.246;2024-01-16T15:51:16;-0.80;99.90